Time;durP1;ratioP1;P1;durP2;ratioP2;P2;SDS_P1;SDS_P2;PMS_P1;PMS_P2;Temp;Humidity;BMP_temperature;BMP_pressure;BME280_temperature;BME280_humidity;BME280_pressure;Samples;Min_cycle;Max_cycle;Signal;HPM_P1;HPM_P2
2023/05/17 00:00:30;;;;;;;10.35;2.80;;;17.60;65.10;;;;;;3973351;29;20196;-52
2023/05/17 00:03:11;;;;;;;9.50;2.30;;;17.60;65.00;;;;;;3971961;29;20116;-52
2023/05/17 00:05:53;;;;;;;13.60;3.17;;;17.60;64.90;;;;;;3972992;29;20053;-54
2023/05/17 00:08:35;;;;;;;9.50;2.30;;;17.60;65.00;;;;;;3972470;29;20050;-51
2023/05/17 00:11:16;;;;;;;11.13;2.97;;;17.60;65.00;;;;;;3972011;29;20058;-51
2023/05/17 00:13:57;;;;;;;8.05;2.65;;;17.50;65.10;;;;;;3970761;29;20135;-54
2023/05/17 00:16:38;;;;;;;14.80;3.25;;;17.50;65.20;;;;;;3970439;29;20106;-53
2023/05/17 00:19:19;;;;;;;15.05;3.17;;;17.50;65.30;;;;;;3971775;29;20605;-54
2023/05/17 00:22:00;;;;;;;8.98;2.35;;;17.50;65.50;;;;;;3972727;29;20062;-53
2023/05/17 00:24:43;;;;;;;7.78;2.42;;;17.50;65.70;;;;;;3946860;29;20111;-48
2023/05/17 00:27:24;;;;;;;13.90;3.22;;;17.50;65.60;;;;;;3946596;29;20120;-53
2023/05/17 00:30:06;;;;;;;10.80;2.60;;;17.50;65.70;;;;;;3957338;29;20412;-53
2023/05/17 00:32:49;;;;;;;13.90;3.00;;;17.50;65.90;;;;;;3962778;29;20057;-53
2023/05/17 00:35:31;;;;;;;12.93;3.38;;;17.50;65.80;;;;;;3957682;29;20463;-50
2023/05/17 00:38:12;;;;;;;25.27;3.85;;;17.50;66.00;;;;;;3957415;29;20054;-53
2023/05/17 00:40:54;;;;;;;8.88;2.65;;;17.50;66.10;;;;;;3936094;29;20051;-54
2023/05/17 00:43:35;;;;;;;14.68;3.17;;;17.50;66.10;;;;;;3970640;29;20066;-56
2023/05/17 00:46:16;;;;;;;13.10;2.53;;;17.50;66.00;;;;;;3957587;29;20212;-51
2023/05/17 00:48:57;;;;;;;11.88;2.97;;;17.50;66.10;;;;;;3956814;29;20070;-55
2023/05/17 00:51:39;;;;;;;11.25;2.97;;;17.50;66.20;;;;;;3957577;29;20070;-51
2023/05/17 00:54:21;;;;;;;16.10;3.60;;;17.50;66.00;;;;;;3957298;29;20077;-51
2023/05/17 00:57:05;;;;;;;11.73;2.63;;;17.50;66.10;;;;;;3946172;29;20062;-54
2023/05/17 00:59:47;;;;;;;13.85;3.25;;;17.50;66.00;;;;;;3957037;29;20188;-51
2023/05/17 01:02:28;;;;;;;14.63;3.63;;;17.40;65.80;;;;;;3961770;29;20054;-51
2023/05/17 01:05:10;;;;;;;15.38;3.55;;;17.40;65.80;;;;;;3960797;29;20057;-43
2023/05/17 01:07:51;;;;;;;19.60;3.05;;;17.40;65.90;;;;;;3971899;29;20074;-43
2023/05/17 01:10:43;;;;;;;13.68;3.33;;;17.40;65.90;;;;;;3971539;29;20062;-44
2023/05/17 01:13:36;;;;;;;17.92;2.78;;;17.40;65.70;;;;;;3960703;29;20415;-45
2023/05/17 01:16:22;;;;;;;9.45;2.50;;;17.40;65.40;;;;;;3971252;29;20069;-44
2023/05/17 01:19:12;;;;;;;10.90;2.35;;;17.40;65.70;;;;;;3972082;29;20199;-45
2023/05/17 01:22:06;;;;;;;9.68;2.55;;;17.40;65.60;;;;;;3959812;29;20081;-45
2023/05/17 01:24:59;;;;;;;13.82;2.88;;;17.40;65.70;;;;;;3971251;29;20066;-45
2023/05/17 01:27:44;;;;;;;10.45;1.90;;;17.40;65.80;;;;;;3970579;29;20079;-43
2023/05/17 01:30:26;;;;;;;9.68;2.25;;;17.40;66.00;;;;;;3970453;29;20191;-44
2023/05/17 01:33:08;;;;;;;13.70;2.63;;;17.30;66.00;;;;;;3963096;29;20058;-44
2023/05/17 01:35:49;;;;;;;8.68;2.10;;;17.40;66.30;;;;;;3971717;29;20134;-44
2023/05/17 01:38:30;;;;;;;8.75;2.35;;;17.40;66.40;;;;;;3970772;29;20053;-51
2023/05/17 01:41:17;;;;;;;10.38;2.55;;;17.30;66.20;;;;;;3971211;29;20403;-44
2023/05/17 01:44:07;;;;;;;9.75;2.50;;;17.30;66.20;;;;;;3960132;29;20061;-44
2023/05/17 01:46:52;;;;;;;9.77;3.50;;;17.30;66.40;;;;;;3960347;29;20061;-44
2023/05/17 01:49:38;;;;;;;13.27;3.22;;;17.30;66.50;;;;;;3971139;29;20160;-44
2023/05/17 01:52:24;;;;;;;11.50;2.25;;;17.30;66.40;;;;;;3960035;29;20058;-44
2023/05/17 01:55:09;;;;;;;10.13;2.50;;;17.30;66.40;;;;;;3959476;29;20544;-44
2023/05/17 01:57:53;;;;;;;8.20;1.90;;;17.30;66.10;;;;;;3959717;29;20838;-44
2023/05/17 02:00:38;;;;;;;10.82;2.38;;;17.30;65.80;;;;;;3959612;29;20071;-44
2023/05/17 02:03:20;;;;;;;11.35;2.58;;;17.30;66.00;;;;;;3971134;29;20410;-44
2023/05/17 02:06:05;;;;;;;11.00;2.13;;;17.30;66.10;;;;;;3960159;29;20832;-44
2023/05/17 02:08:47;;;;;;;13.13;2.47;;;17.30;65.90;;;;;;3971051;29;20184;-44
2023/05/17 02:11:28;;;;;;;11.18;1.95;;;17.30;66.10;;;;;;3960173;29;20415;-44
2023/05/17 02:14:08;;;;;;;7.13;2.07;;;17.30;66.20;;;;;;3970767;29;20415;-44
2023/05/17 02:16:51;;;;;;;12.25;1.98;;;17.30;66.10;;;;;;3970642;29;20860;-44
2023/05/17 02:19:32;;;;;;;9.40;1.75;;;17.20;65.30;;;;;;3971019;29;20267;-44
2023/05/17 02:22:13;;;;;;;14.30;2.50;;;17.20;65.50;;;;;;3971353;29;20058;-44
2023/05/17 02:24:54;;;;;;;10.65;1.73;;;17.20;65.10;;;;;;3970545;29;20127;-44
2023/05/17 02:27:35;;;;;;;8.45;2.28;;;17.20;65.20;;;;;;3959970;29;20119;-43
2023/05/17 02:30:16;;;;;;;17.67;2.22;;;17.20;65.30;;;;;;3971040;29;20074;-44
2023/05/17 02:33:00;;;;;;;12.75;2.22;;;17.20;65.60;;;;;;3971140;29;20138;-43
2023/05/17 02:35:42;;;;;;;5.82;2.08;;;17.20;65.20;;;;;;3959895;29;20062;-44
2023/05/17 02:38:23;;;;;;;8.03;2.07;;;17.20;65.20;;;;;;3955279;29;20415;-44
2023/05/17 02:41:04;;;;;;;5.13;1.50;;;17.10;65.50;;;;;;3944750;29;20046;-44
2023/05/17 02:43:45;;;;;;;6.35;2.05;;;17.10;65.30;;;;;;3956290;29;20050;-44
2023/05/17 02:46:26;;;;;;;11.68;2.17;;;17.10;64.80;;;;;;3957018;29;20486;-43
2023/05/17 02:49:09;;;;;;;;;;;17.10;64.30;;;;;;3962121;29;20045;-43
2023/05/17 02:51:50;;;;;;;10.95;1.92;;;17.10;64.60;;;;;;3962642;29;20388;-45
2023/05/17 02:54:31;;;;;;;8.23;2.00;;;17.10;65.40;;;;;;3962614;29;20073;-44
2023/05/17 02:57:12;;;;;;;3.65;1.70;;;17.00;64.90;;;;;;3962370;29;20198;-44
2023/05/17 02:59:53;;;;;;;3.95;1.50;;;17.00;64.00;;;;;;3962481;29;20571;-57
2023/05/17 03:02:34;;;;;;;8.57;1.67;;;17.00;63.80;;;;;;3951963;29;20057;-56
2023/05/17 03:05:17;;;;;;;7.05;1.77;;;17.00;63.90;;;;;;3962348;29;20060;-56
2023/05/17 03:08:02;;;;;;;6.13;1.58;;;17.00;62.80;;;;;;3961676;29;20065;-56
2023/05/17 03:10:43;;;;;;;7.28;1.42;;;17.00;63.80;;;;;;3972293;29;20422;-54
2023/05/17 03:13:25;;;;;;;6.50;1.40;;;16.90;63.40;;;;;;3962267;29;20070;-56
2023/05/17 03:16:08;;;;;;;9.20;2.05;;;16.90;63.40;;;;;;3973467;29;20093;-56
2023/05/17 03:18:48;;;;;;;7.15;1.88;;;16.90;62.70;;;;;;3962195;29;20057;-56
2023/05/17 03:21:31;;;;;;;9.45;2.20;;;16.90;63.00;;;;;;3961787;29;20147;-55
2023/05/17 03:24:12;;;;;;;5.05;1.40;;;16.90;63.20;;;;;;3961083;29;20058;-56
2023/05/17 03:26:54;;;;;;;6.95;1.50;;;16.90;63.60;;;;;;3961754;29;20415;-57
2023/05/17 03:29:35;;;;;;;8.27;1.80;;;16.90;63.60;;;;;;3962176;29;20061;-57
2023/05/17 03:32:16;;;;;;;5.20;1.48;;;16.90;63.30;;;;;;3961140;29;20083;-55
2023/05/17 03:34:57;;;;;;;4.57;1.42;;;16.90;63.40;;;;;;3972686;29;20057;-55
2023/05/17 03:37:40;;;;;;;5.63;1.50;;;16.90;63.50;;;;;;3962056;29;20089;-53
2023/05/17 03:40:22;;;;;;;6.05;1.70;;;16.90;63.30;;;;;;3972934;29;20061;-55
2023/05/17 03:43:03;;;;;;;9.55;1.50;;;16.90;63.40;;;;;;3972183;29;20061;-57
2023/05/17 03:45:44;;;;;;;6.32;1.45;;;16.90;63.70;;;;;;3951599;29;20622;-57
2023/05/17 03:48:25;;;;;;;3.92;1.88;;;16.90;63.50;;;;;;3962048;29;20061;-60
2023/05/17 03:51:07;;;;;;;9.20;1.70;;;16.80;63.70;;;;;;3961251;29;20058;-56
2023/05/17 03:53:50;;;;;;;8.77;1.77;;;16.80;64.00;;;;;;3972041;29;20050;-56
2023/05/17 03:56:32;;;;;;;9.23;2.03;;;16.90;64.20;;;;;;3961427;29;20296;-55
2023/05/17 03:59:13;;;;;;;3.77;1.37;;;16.90;63.90;;;;;;3972100;29;20091;-54
2023/05/17 04:01:53;;;;;;;5.20;1.58;;;16.90;64.10;;;;;;3961061;29;20062;-55
2023/05/17 04:04:34;;;;;;;7.45;1.60;;;16.80;64.30;;;;;;3961023;29;20163;-54
2023/05/17 04:07:15;;;;;;;7.32;1.73;;;16.80;64.30;;;;;;3972794;29;20123;-56
2023/05/17 04:09:58;;;;;;;7.03;1.70;;;16.90;64.30;;;;;;3972405;29;20062;-56
2023/05/17 04:12:42;;;;;;;5.68;1.58;;;16.80;63.90;;;;;;3961396;29;20054;-56
2023/05/17 04:15:22;;;;;;;6.72;1.50;;;16.80;63.90;;;;;;3972871;29;20058;-56
2023/05/17 04:18:04;;;;;;;6.75;1.58;;;16.90;63.60;;;;;;3961451;29;20415;-57
2023/05/17 04:20:45;;;;;;;7.75;1.92;;;16.80;63.50;;;;;;3961837;29;20090;-57
2023/05/17 04:23:26;;;;;;;4.90;1.30;;;16.80;63.90;;;;;;3936263;29;20053;-56
2023/05/17 04:26:09;;;;;;;7.30;1.52;;;16.90;65.10;;;;;;3957729;29;20058;-57
2023/05/17 04:28:52;;;;;;;5.63;1.60;;;16.80;63.80;;;;;;3956817;29;20621;-53
2023/05/17 04:31:33;;;;;;;;;;;16.80;63.80;;;;;;3971735;29;20518;-52
2023/05/17 04:34:14;;;;;;;7.90;1.80;;;16.80;64.10;;;;;;3961166;29;20409;-52
2023/05/17 04:36:56;;;;;;;6.43;1.67;;;16.80;65.20;;;;;;3971572;29;20054;-56
2023/05/17 04:39:38;;;;;;;4.13;1.50;;;16.80;64.70;;;;;;3971494;29;20066;-56
2023/05/17 04:42:21;;;;;;;5.65;1.25;;;16.80;64.70;;;;;;3972117;29;20074;-56
2023/05/17 04:45:08;;;;;;;6.53;1.67;;;16.80;64.50;;;;;;3971543;29;20049;-59
2023/05/17 04:47:51;;;;;;;5.47;1.65;;;16.80;64.30;;;;;;3972445;29;20049;-55
2023/05/17 04:50:32;;;;;;;6.28;1.08;;;16.80;64.10;;;;;;3960042;29;20050;-56
2023/05/17 04:53:14;;;;;;;6.90;1.67;;;16.80;64.10;;;;;;3971705;29;20058;-58
2023/05/17 04:55:55;;;;;;;5.57;1.40;;;16.80;63.70;;;;;;3960966;29;20062;-58
2023/05/17 04:58:39;;;;;;;4.65;1.40;;;16.80;63.60;;;;;;3960480;29;20545;-57
2023/05/17 05:01:20;;;;;;;7.13;1.73;;;16.80;63.70;;;;;;3961070;29;20066;-57
2023/05/17 05:04:05;;;;;;;10.95;1.73;;;16.80;63.70;;;;;;3971044;29;20472;-57
2023/05/17 05:06:51;;;;;;;5.68;2.20;;;16.80;64.60;;;;;;3960617;29;20061;-57
2023/05/17 05:09:33;;;;;;;5.70;1.70;;;16.80;63.30;;;;;;3960357;29;20053;-58
2023/05/17 05:12:15;;;;;;;8.70;1.45;;;16.80;63.00;;;;;;3970292;29;20063;-44
2023/05/17 05:14:57;;;;;;;9.45;1.83;;;16.80;63.00;;;;;;3970982;29;20115;-44
2023/05/17 05:17:41;;;;;;;5.78;1.30;;;16.80;62.80;;;;;;3960746;29;20053;-44
2023/05/17 05:20:22;;;;;;;3.35;1.58;;;16.80;63.20;;;;;;3957098;29;20564;-44
2023/05/17 05:23:09;;;;;;;10.57;2.25;;;16.80;63.80;;;;;;3955795;29;20523;-44
2023/05/17 05:25:52;;;;;;;4.45;1.33;;;16.80;61.70;;;;;;3955600;29;20058;-44
2023/05/17 05:28:33;;;;;;;;;;;16.80;60.50;;;;;;3951440;29;20123;-44
2023/05/17 05:31:16;;;;;;;9.25;1.98;;;16.80;61.10;;;;;;3970926;29;19931;-44
2023/05/17 05:34:03;;;;;;;8.27;2.08;;;16.80;61.40;;;;;;3960566;29;20071;-44
2023/05/17 05:36:44;;;;;;;;;;;16.80;60.90;;;;;;3960883;29;20062;-44
2023/05/17 05:39:26;;;;;;;8.73;2.30;;;16.80;61.20;;;;;;3970700;29;20015;-44
2023/05/17 05:42:08;;;;;;;7.15;1.73;;;16.80;60.60;;;;;;3945629;29;20416;-44
2023/05/17 05:44:49;;;;;;;8.05;1.65;;;16.80;59.50;;;;;;3940937;30;20059;-50
2023/05/17 05:47:32;;;;;;;8.27;2.40;;;16.80;60.40;;;;;;3945687;29;20136;-44
2023/05/17 05:50:13;;;;;;;8.52;2.10;;;16.80;58.90;;;;;;3940907;29;20062;-45
2023/05/17 05:53:00;;;;;;;10.25;2.03;;;16.80;59.00;;;;;;3955348;29;20066;-44
2023/05/17 05:55:54;;;;;;;7.75;2.08;;;16.90;58.60;;;;;;3939040;29;20626;-44
2023/05/17 05:58:36;;;;;;;8.82;2.25;;;16.90;59.00;;;;;;3937919;29;20145;-58
2023/05/17 06:01:18;;;;;;;9.43;2.60;;;16.90;58.10;;;;;;3940790;30;20074;-53
2023/05/17 06:04:00;;;;;;;7.30;2.10;;;16.80;58.40;;;;;;3956591;29;20074;-58
2023/05/17 06:06:41;;;;;;;8.52;1.95;;;16.90;59.00;;;;;;3956658;29;20058;-51
2023/05/17 06:09:22;;;;;;;9.70;2.15;;;16.80;59.80;;;;;;3956388;29;20058;-58
2023/05/17 06:12:03;;;;;;;11.23;2.20;;;16.80;60.10;;;;;;3956100;29;20396;-58
2023/05/17 06:14:43;;;;;;;10.68;2.58;;;16.80;60.50;;;;;;3956141;29;20066;-52
2023/05/17 06:17:25;;;;;;;8.80;1.67;;;16.80;60.30;;;;;;3956091;29;20424;-58
2023/05/17 06:20:09;;;;;;;6.97;2.00;;;16.80;58.90;;;;;;3956168;29;20062;-50
2023/05/17 06:22:49;;;;;;;12.88;2.63;;;16.80;59.40;;;;;;3956252;29;20076;-51
2023/05/17 06:25:30;;;;;;;13.15;2.95;;;16.80;60.10;;;;;;3954155;29;20482;-54
2023/05/17 06:28:15;;;;;;;8.70;2.20;;;16.80;60.00;;;;;;3956367;29;20083;-58
2023/05/17 06:30:55;;;;;;;10.30;2.73;;;16.80;59.50;;;;;;3956306;29;20066;-51
2023/05/17 06:33:36;;;;;;;11.25;2.55;;;16.80;59.50;;;;;;3955553;29;20066;-52
2023/05/17 06:36:19;;;;;;;12.00;2.17;;;16.70;60.70;;;;;;3945444;29;20054;-51
2023/05/17 06:38:59;;;;;;;487.67;46.22;;;16.70;60.70;;;;;;3956002;29;20054;-58
2023/05/17 06:41:40;;;;;;;9.88;2.50;;;16.70;60.90;;;;;;3956139;29;20059;-58
2023/05/17 06:44:21;;;;;;;22.45;2.80;;;16.80;58.10;;;;;;3957530;29;20188;-58
2023/05/17 06:47:02;;;;;;;8.18;2.05;;;16.80;57.20;;;;;;3971324;29;20518;-58
2023/05/17 06:49:43;;;;;;;10.38;1.70;;;16.70;56.00;;;;;;3970072;29;20146;-58
2023/05/17 06:52:25;;;;;;;12.02;2.83;;;16.70;56.40;;;;;;3957251;29;20058;-58
2023/05/17 06:55:08;;;;;;;12.68;2.55;;;16.80;55.80;;;;;;3971440;29;20062;-58
2023/05/17 06:57:49;;;;;;;6.88;2.15;;;16.80;55.20;;;;;;3985948;29;20126;-58
2023/05/17 07:00:31;;;;;;;10.32;1.88;;;16.70;55.20;;;;;;3959567;29;20070;-54
2023/05/17 07:03:12;;;;;;;7.25;2.00;;;16.80;54.70;;;;;;3970718;29;20518;-53
2023/05/17 07:05:53;;;;;;;9.07;2.25;;;16.80;55.30;;;;;;3968591;29;20127;-51
2023/05/17 07:08:35;;;;;;;9.50;2.00;;;16.80;54.90;;;;;;3970646;29;20560;-53
2023/05/17 07:11:16;;;;;;;7.22;2.00;;;16.80;54.10;;;;;;3954777;29;20307;-58
2023/05/17 07:13:57;;;;;;;8.93;1.90;;;16.90;52.80;;;;;;3971097;29;20408;-51
2023/05/17 07:16:38;;;;;;;6.82;1.92;;;16.90;53.10;;;;;;3971624;29;20049;-54
2023/05/17 07:19:19;;;;;;;10.75;2.47;;;16.90;52.60;;;;;;3963874;29;20491;-50
2023/05/17 07:22:01;;;;;;;6.95;2.00;;;17.00;53.20;;;;;;3964526;29;20106;-50
2023/05/17 07:24:43;;;;;;;6.13;1.67;;;17.00;53.50;;;;;;3964967;29;20188;-51
2023/05/17 07:27:24;;;;;;;11.23;1.92;;;17.00;54.20;;;;;;3985297;29;20069;-52
2023/05/17 07:30:06;;;;;;;7.40;2.15;;;17.00;54.70;;;;;;3983377;29;20053;-53
2023/05/17 07:32:47;;;;;;;7.93;2.20;;;17.00;54.30;;;;;;3967630;29;20054;-51
2023/05/17 07:35:28;;;;;;;11.45;2.65;;;17.00;54.20;;;;;;3956587;29;20070;-53
2023/05/17 07:38:10;;;;;;;7.85;1.98;;;17.00;53.80;;;;;;3947021;29;20070;-57
2023/05/17 07:40:52;;;;;;;10.30;2.15;;;16.90;54.60;;;;;;3965465;29;20146;-58
2023/05/17 07:43:33;;;;;;;6.15;1.63;;;16.90;54.00;;;;;;3958495;29;20111;-52
2023/05/17 07:46:14;;;;;;;9.50;1.90;;;16.90;55.50;;;;;;3985916;29;20060;-52
2023/05/17 07:48:55;;;;;;;7.20;2.13;;;16.90;55.90;;;;;;3979707;29;20255;-50
2023/05/17 07:51:38;;;;;;;7.10;1.83;;;16.80;55.70;;;;;;3972131;29;20134;-53
2023/05/17 07:54:23;;;;;;;8.20;2.17;;;16.80;54.50;;;;;;3988131;29;20062;-52
2023/05/17 07:57:06;;;;;;;9.75;2.28;;;16.80;54.70;;;;;;3968729;29;20057;-53
2023/05/17 07:59:46;;;;;;;8.65;2.40;;;16.80;54.60;;;;;;3972913;29;20191;-50
2023/05/17 08:02:27;;;;;;;9.27;2.13;;;16.80;55.00;;;;;;3971291;29;20143;-57
2023/05/17 08:05:09;;;;;;;9.02;2.00;;;16.80;54.70;;;;;;3972937;29;20057;-57
2023/05/17 08:07:51;;;;;;;10.25;2.55;;;16.80;54.40;;;;;;3972529;29;20057;-50
2023/05/17 08:10:31;;;;;;;;;;;16.80;54.10;;;;;;3972671;29;20061;-51
2023/05/17 08:13:13;;;;;;;7.55;1.92;;;16.80;54.70;;;;;;3972741;29;19936;-51
2023/05/17 08:15:58;;;;;;;9.32;1.88;;;16.80;55.00;;;;;;3972232;29;20058;-55
2023/05/17 08:18:48;;;;;;;8.85;2.42;;;16.80;55.60;;;;;;3971650;29;20107;-53
2023/05/17 08:21:30;;;;;;;7.88;1.67;;;16.80;55.20;;;;;;3961133;29;20050;-55
2023/05/17 08:24:12;;;;;;;9.85;2.47;;;16.80;54.10;;;;;;3972350;29;20061;-51
2023/05/17 08:26:53;;;;;;;7.25;1.77;;;16.80;54.90;;;;;;3972246;29;20147;-54
2023/05/17 08:29:36;;;;;;;7.28;1.88;;;16.90;54.90;;;;;;3971075;29;20505;-54
2023/05/17 08:32:19;;;;;;;8.43;1.85;;;16.90;55.70;;;;;;3972270;29;20066;-54
2023/05/17 08:35:01;;;;;;;6.80;1.70;;;16.90;54.40;;;;;;3972127;29;20091;-50
2023/05/17 08:37:41;;;;;;;7.05;1.98;;;16.80;55.60;;;;;;3971705;29;20058;-55
2023/05/17 08:40:22;;;;;;;8.40;2.22;;;16.80;54.40;;;;;;3971299;29;20062;-55
2023/05/17 08:43:03;;;;;;;6.82;1.77;;;16.90;53.60;;;;;;3972004;29;20058;-50
2023/05/17 08:45:46;;;;;;;6.32;1.60;;;16.80;52.60;;;;;;3972394;29;20062;-53
2023/05/17 08:48:29;;;;;;;5.20;1.65;;;16.80;52.30;;;;;;3971551;29;20065;-56
2023/05/17 08:51:11;;;;;;;6.63;1.63;;;16.80;53.10;;;;;;3968742;29;20061;-56
2023/05/17 08:53:52;;;;;;;7.50;2.20;;;16.80;53.40;;;;;;3957429;29;20062;-56
2023/05/17 08:56:35;;;;;;;5.82;2.05;;;16.80;53.50;;;;;;3940941;29;20427;-56
2023/05/17 08:59:16;;;;;;;5.47;1.67;;;16.80;53.10;;;;;;3971411;29;20059;-55
2023/05/17 09:01:58;;;;;;;5.97;1.55;;;16.80;52.60;;;;;;3972112;29;20062;-55
2023/05/17 09:04:39;;;;;;;5.20;1.45;;;16.80;53.00;;;;;;3971982;29;20049;-55
2023/05/17 09:07:20;;;;;;;8.07;2.00;;;16.80;53.80;;;;;;3971579;29;20062;-55
2023/05/17 09:10:04;;;;;;;9.27;1.70;;;16.80;53.70;;;;;;3971484;29;20188;-56
2023/05/17 09:12:46;;;;;;;7.95;1.90;;;16.80;53.50;;;;;;3953070;29;20135;-56
2023/05/17 09:15:28;;;;;;;6.43;2.10;;;16.80;53.10;;;;;;3971924;29;20497;-56
2023/05/17 09:18:12;;;;;;;5.15;1.67;;;16.80;53.50;;;;;;3971633;29;20062;-56
2023/05/17 09:20:53;;;;;;;10.05;1.80;;;16.80;54.20;;;;;;3960206;29;20522;-56
2023/05/17 09:23:33;;;;;;;6.90;1.83;;;16.80;55.00;;;;;;3968644;29;20499;-55
2023/05/17 09:26:14;;;;;;;5.35;1.90;;;16.80;55.40;;;;;;3968994;29;20139;-56
2023/05/17 09:28:55;;;;;;;8.95;1.73;;;16.80;55.10;;;;;;3957577;29;20054;-56
2023/05/17 09:31:36;;;;;;;8.02;2.38;;;16.80;55.70;;;;;;3964777;29;20074;-56
2023/05/17 09:34:22;;;;;;;10.40;2.15;;;16.80;56.00;;;;;;3968520;29;20073;-54
2023/05/17 09:37:03;;;;;;;6.35;1.95;;;16.80;56.40;;;;;;3968086;29;20071;-55
2023/05/17 09:39:45;;;;;;;4.25;1.73;;;16.80;55.60;;;;;;3968642;29;20053;-54
2023/05/17 09:42:27;;;;;;;10.98;2.38;;;16.80;56.00;;;;;;3957242;29;20524;-55
2023/05/17 09:45:08;;;;;;;;;;;16.80;55.80;;;;;;3955421;29;20110;-55
2023/05/17 09:47:48;;;;;;;6.68;1.83;;;16.80;56.30;;;;;;3955863;29;20028;-55
2023/05/17 09:50:33;;;;;;;7.55;1.77;;;16.80;57.60;;;;;;3968400;29;20061;-54
2023/05/17 09:53:32;;;;;;;5.75;1.45;;;16.90;54.90;;;;;;3969173;29;20061;-55
2023/05/17 09:56:16;;;;;;;5.47;1.67;;;16.80;53.90;;;;;;3968350;29;20419;-54
2023/05/17 09:58:57;;;;;;;6.68;1.50;;;16.80;55.20;;;;;;3967857;29;20062;-53
2023/05/17 10:01:41;;;;;;;5.72;1.33;;;16.80;54.10;;;;;;3956756;29;20058;-54
2023/05/17 10:04:24;;;;;;;5.60;1.77;;;16.80;54.10;;;;;;3961566;29;20111;-53
2023/05/17 10:07:07;;;;;;;6.68;1.88;;;16.90;53.70;;;;;;3968673;29;20065;-54
2023/05/17 10:09:49;;;;;;;3.92;1.38;;;16.90;52.40;;;;;;3968018;29;20054;-55
2023/05/17 10:12:32;;;;;;;5.22;1.60;;;16.90;54.00;;;;;;3968216;29;20519;-54
2023/05/17 10:15:16;;;;;;;3.17;1.80;;;16.90;53.50;;;;;;3968685;29;20064;-55
2023/05/17 10:17:57;;;;;;;5.55;1.60;;;16.90;53.70;;;;;;3968644;29;20057;-55
2023/05/17 10:20:39;;;;;;;6.18;1.83;;;16.90;53.10;;;;;;3968106;29;20115;-55
2023/05/17 10:23:21;;;;;;;8.70;2.00;;;16.90;52.90;;;;;;3968204;29;20065;-55
2023/05/17 10:26:03;;;;;;;5.03;1.50;;;16.90;52.90;;;;;;3967167;29;20188;-56
2023/05/17 10:28:45;;;;;;;;;;;17.00;53.00;;;;;;3968227;29;20058;-54
2023/05/17 10:31:28;;;;;;;9.18;1.88;;;17.00;53.10;;;;;;3967393;29;19962;-60
2023/05/17 10:34:10;;;;;;;7.90;2.08;;;16.90;53.30;;;;;;3967751;29;20098;-55
2023/05/17 10:36:52;;;;;;;6.65;1.70;;;16.90;53.20;;;;;;3967974;29;20053;-55
2023/05/17 10:39:37;;;;;;;;;;;16.90;53.10;;;;;;3968735;29;20079;-55
2023/05/17 10:42:19;;;;;;;9.55;2.35;;;16.90;53.40;;;;;;3966840;29;19932;-54
2023/05/17 10:45:01;;;;;;;6.03;1.77;;;16.90;53.40;;;;;;3968212;29;20069;-55
2023/05/17 10:47:44;;;;;;;4.95;1.73;;;16.90;53.40;;;;;;3967864;29;20082;-52
2023/05/17 10:50:26;;;;;;;4.93;2.13;;;16.90;52.80;;;;;;3968134;29;20087;-55
2023/05/17 10:53:11;;;;;;;9.00;2.08;;;16.90;52.60;;;;;;3957252;29;20143;-53
2023/05/17 10:55:53;;;;;;;4.05;1.50;;;16.90;51.70;;;;;;3968197;29;20053;-54
2023/05/17 10:58:33;;;;;;;4.75;1.55;;;16.90;51.40;;;;;;3968221;29;20062;-55
2023/05/17 11:01:51;;;;;;;4.20;1.63;;;17.00;52.40;;;;;;3968575;29;20642;-54
2023/05/17 11:04:35;;;;;;;6.78;1.65;;;17.00;51.50;;;;;;3948316;29;20070;-55
2023/05/17 11:07:31;;;;;;;6.88;1.35;;;17.00;53.10;;;;;;3955080;29;20137;-56
2023/05/17 11:10:13;;;;;;;6.07;1.55;;;17.00;52.70;;;;;;3971945;29;20061;-56
2023/05/17 11:12:56;;;;;;;6.68;1.48;;;17.00;53.00;;;;;;3973606;29;20062;-56
2023/05/17 11:15:37;;;;;;;6.03;1.83;;;17.00;52.50;;;;;;3972762;29;20103;-56
2023/05/17 11:18:21;;;;;;;5.03;1.75;;;17.00;52.90;;;;;;3973064;29;20065;-56
2023/05/17 11:21:14;;;;;;;10.63;1.92;;;17.10;53.20;;;;;;3972994;29;20108;-54
2023/05/17 11:24:00;;;;;;;5.03;1.95;;;17.10;52.40;;;;;;3973592;29;20492;-55
2023/05/17 11:26:45;;;;;;;6.00;1.48;;;17.20;52.80;;;;;;3972975;29;20074;-56
2023/05/17 11:29:30;;;;;;;3.25;1.40;;;17.20;52.10;;;;;;3973436;29;20118;-55
2023/05/17 11:32:11;;;;;;;9.15;1.73;;;17.20;51.50;;;;;;3973574;29;20404;-52
2023/05/17 11:34:53;;;;;;;6.05;1.92;;;17.20;51.20;;;;;;3973654;29;20568;-54
2023/05/17 11:37:34;;;;;;;7.55;1.92;;;17.20;52.20;;;;;;3972768;29;20058;-55
2023/05/17 11:40:26;;;;;;;11.10;2.53;;;17.20;51.60;;;;;;3958347;29;20072;-55
2023/05/17 11:43:10;;;;;;;;;;;17.20;51.80;;;;;;3958353;29;20472;-54
2023/05/17 11:45:57;;;;;;;4.25;1.70;;;17.20;52.50;;;;;;3958316;29;19932;-51
2023/05/17 11:48:38;;;;;;;9.60;1.95;;;17.20;52.80;;;;;;3958235;29;20502;-54
2023/05/17 11:51:20;;;;;;;35.70;3.63;;;17.20;52.80;;;;;;3958076;29;20510;-52
2023/05/17 11:54:07;;;;;;;6.80;1.90;;;17.20;52.20;;;;;;3957133;29;20058;-55
2023/05/17 11:56:49;;;;;;;6.20;1.77;;;17.20;51.80;;;;;;3957963;29;20208;-56
2023/05/17 11:59:37;;;;;;;4.70;2.20;;;17.20;52.40;;;;;;3958184;29;20067;-53
2023/05/17 12:02:30;;;;;;;8.68;2.33;;;17.20;51.60;;;;;;3958239;29;20072;-52
2023/05/17 12:05:11;;;;;;;5.72;2.08;;;17.30;51.40;;;;;;3957868;29;20118;-55
2023/05/17 12:07:52;;;;;;;4.45;2.13;;;17.30;51.50;;;;;;3958085;29;20062;-55
2023/05/17 12:10:34;;;;;;;8.75;1.92;;;17.30;51.80;;;;;;3946832;30;20058;-55
2023/05/17 12:13:16;;;;;;;10.02;1.98;;;17.30;52.00;;;;;;3958010;29;20176;-55
2023/05/17 12:15:58;;;;;;;6.18;1.58;;;17.30;52.30;;;;;;3958126;29;20078;-53
2023/05/17 12:18:41;;;;;;;4.22;1.58;;;17.30;52.70;;;;;;3956998;29;20058;-55
2023/05/17 12:21:21;;;;;;;7.65;1.98;;;17.30;51.70;;;;;;3957448;29;20054;-55
2023/05/17 12:24:03;;;;;;;8.35;1.98;;;17.30;51.00;;;;;;3957976;29;20062;-55
2023/05/17 12:26:44;;;;;;;;;;;17.30;50.60;;;;;;3958240;29;20123;-53
2023/05/17 12:29:29;;;;;;;7.68;1.90;;;17.30;51.10;;;;;;3972444;29;19950;-54
2023/05/17 12:32:10;;;;;;;8.55;1.95;;;17.30;51.40;;;;;;3971858;29;20157;-56
2023/05/17 12:34:53;;;;;;;6.18;1.70;;;17.30;52.00;;;;;;3972710;29;20057;-55
2023/05/17 12:37:34;;;;;;;5.82;2.00;;;17.30;52.00;;;;;;3972336;29;20066;-55
2023/05/17 12:40:14;;;;;;;6.05;1.80;;;17.30;50.20;;;;;;3972577;29;20555;-55
2023/05/17 12:43:02;;;;;;;5.07;1.70;;;17.30;49.80;;;;;;3972382;29;20058;-53
2023/05/17 12:45:43;;;;;;;7.80;2.10;;;17.30;50.90;;;;;;3972113;29;20070;-55
2023/05/17 12:48:26;;;;;;;7.68;1.98;;;17.30;51.60;;;;;;3960724;29;20066;-56
2023/05/17 12:51:09;;;;;;;5.95;1.85;;;17.30;52.10;;;;;;3971728;29;20054;-55
2023/05/17 12:53:53;;;;;;;7.85;1.92;;;17.40;52.20;;;;;;3972336;29;20062;-52
2023/05/17 12:56:34;;;;;;;4.85;1.88;;;17.40;52.50;;;;;;3970493;29;20591;-54
2023/05/17 12:59:16;;;;;;;5.90;1.60;;;17.40;52.20;;;;;;3969637;29;20061;-56
2023/05/17 13:01:59;;;;;;;7.15;1.70;;;17.40;51.80;;;;;;3970686;29;20062;-54
2023/05/17 13:04:40;;;;;;;9.70;1.80;;;17.50;51.60;;;;;;3971802;29;20049;-56
2023/05/17 13:07:23;;;;;;;5.80;1.52;;;17.50;51.60;;;;;;3968533;29;20153;-56
2023/05/17 13:10:05;;;;;;;8.40;2.15;;;17.50;51.60;;;;;;3975505;29;20537;-52
2023/05/17 13:12:55;;;;;;;5.60;1.77;;;17.60;51.80;;;;;;3970841;29;20397;-54
2023/05/17 13:15:35;;;;;;;10.35;2.15;;;17.60;51.40;;;;;;3972000;29;20084;-55
2023/05/17 13:18:16;;;;;;;6.60;1.95;;;17.60;51.40;;;;;;3971274;29;20062;-55
2023/05/17 13:20:58;;;;;;;12.43;2.20;;;17.60;51.40;;;;;;3971303;29;20065;-56
2023/05/17 13:23:44;;;;;;;7.88;2.28;;;17.60;51.10;;;;;;3971825;29;20161;-53
2023/05/17 13:26:25;;;;;;;4.95;1.60;;;17.60;51.00;;;;;;3971836;29;20069;-55
2023/05/17 13:29:06;;;;;;;10.85;1.80;;;17.60;50.60;;;;;;3972027;29;20075;-55
2023/05/17 13:31:46;;;;;;;5.38;1.52;;;17.60;50.30;;;;;;3971243;29;20260;-55
2023/05/17 13:34:27;;;;;;;7.13;1.92;;;17.60;51.10;;;;;;3971475;29;20058;-55
2023/05/17 13:37:08;;;;;;;4.22;1.33;;;17.60;51.10;;;;;;3971271;29;20169;-54
2023/05/17 13:39:55;;;;;;;4.28;1.80;;;17.60;51.60;;;;;;3971840;29;20130;-53
2023/05/17 13:42:36;;;;;;;3.75;1.30;;;17.70;51.50;;;;;;3971557;29;20062;-55
2023/05/17 13:45:17;;;;;;;3.97;1.27;;;17.70;51.00;;;;;;3971881;29;20423;-56
2023/05/17 13:47:58;;;;;;;3.45;1.38;;;17.70;52.00;;;;;;3971141;29;20061;-56
2023/05/17 13:50:39;;;;;;;6.35;1.83;;;17.70;51.80;;;;;;3971733;29;20522;-55
2023/05/17 13:53:20;;;;;;;4.50;1.42;;;17.70;51.20;;;;;;3955982;29;20062;-54
2023/05/17 13:56:03;;;;;;;3.90;1.27;;;17.70;50.30;;;;;;3956770;29;20054;-55
2023/05/17 13:58:45;;;;;;;3.20;1.50;;;17.70;50.90;;;;;;3955726;29;20120;-54
2023/05/17 14:01:25;;;;;;;6.95;1.85;;;17.70;51.20;;;;;;3960277;29;20054;-55
2023/05/17 14:04:06;;;;;;;7.88;1.77;;;17.70;51.60;;;;;;3971399;29;20061;-53
2023/05/17 14:06:47;;;;;;;4.07;1.60;;;17.70;50.50;;;;;;3971499;29;20130;-52